sensor_id;sensor_type;location;lat;lon;timestamp;P1;durP1;ratioP1;P2;durP2;ratioP2
76745;SDS011;65671;49.976;20.038;2023-03-21T00:00:04;42.65;;;25.60;;
76745;SDS011;65671;49.976;20.038;2023-03-21T00:02:31;39.22;;;23.73;;
76745;SDS011;65671;49.976;20.038;2023-03-21T00:04:57;40.08;;;24.75;;
76745;SDS011;65671;49.976;20.038;2023-03-21T00:07:23;39.72;;;25.13;;
76745;SDS011;65671;49.976;20.038;2023-03-21T00:09:48;37.10;;;24.15;;
76745;SDS011;65671;49.976;20.038;2023-03-21T00:12:14;41.70;;;23.65;;
76745;SDS011;65671;49.976;20.038;2023-03-21T00:14:41;43.15;;;23.90;;
76745;SDS011;65671;49.976;20.038;2023-03-21T00:17:07;37.10;;;23.48;;
76745;SDS011;65671;49.976;20.038;2023-03-21T00:19:34;39.50;;;24.63;;
76745;SDS011;65671;49.976;20.038;2023-03-21T00:22:02;37.25;;;23.48;;
76745;SDS011;65671;49.976;20.038;2023-03-21T00:24:29;41.95;;;23.90;;
76745;SDS011;65671;49.976;20.038;2023-03-21T00:26:55;40.58;;;23.75;;
76745;SDS011;65671;49.976;20.038;2023-03-21T00:29:20;44.13;;;24.27;;
76745;SDS011;65671;49.976;20.038;2023-03-21T00:31:46;41.42;;;24.83;;
76745;SDS011;65671;49.976;20.038;2023-03-21T00:34:11;40.35;;;24.30;;
76745;SDS011;65671;49.976;20.038;2023-03-21T00:36:37;43.00;;;24.88;;
76745;SDS011;65671;49.976;20.038;2023-03-21T00:39:03;39.10;;;23.58;;
76745;SDS011;65671;49.976;20.038;2023-03-21T00:41:30;43.83;;;23.48;;
76745;SDS011;65671;49.976;20.038;2023-03-21T00:43:56;42.17;;;24.67;;
76745;SDS011;65671;49.976;20.038;2023-03-21T00:46:22;37.13;;;22.30;;
76745;SDS011;65671;49.976;20.038;2023-03-21T00:48:47;40.88;;;23.40;;
76745;SDS011;65671;49.976;20.038;2023-03-21T00:51:14;39.35;;;24.05;;
76745;SDS011;65671;49.976;20.038;2023-03-21T00:53:51;39.13;;;22.98;;
76745;SDS011;65671;49.976;20.038;2023-03-21T00:56:20;43.70;;;24.95;;
76745;SDS011;65671;49.976;20.038;2023-03-21T00:58:46;45.15;;;24.85;;
76745;SDS011;65671;49.976;20.038;2023-03-21T01:01:11;40.25;;;22.50;;
76745;SDS011;65671;49.976;20.038;2023-03-21T01:03:37;48.72;;;24.65;;
76745;SDS011;65671;49.976;20.038;2023-03-21T01:06:10;46.53;;;24.00;;
76745;SDS011;65671;49.976;20.038;2023-03-21T01:08:41;42.67;;;23.60;;
76745;SDS011;65671;49.976;20.038;2023-03-21T01:11:09;43.05;;;24.48;;
76745;SDS011;65671;49.976;20.038;2023-03-21T01:13:37;38.55;;;22.48;;
76745;SDS011;65671;49.976;20.038;2023-03-21T01:16:03;39.00;;;22.13;;
76745;SDS011;65671;49.976;20.038;2023-03-21T01:18:30;39.83;;;22.98;;
76745;SDS011;65671;49.976;20.038;2023-03-21T01:20:58;42.67;;;24.00;;
76745;SDS011;65671;49.976;20.038;2023-03-21T01:23:25;39.08;;;22.63;;
76745;SDS011;65671;49.976;20.038;2023-03-21T01:25:52;43.35;;;24.58;;
76745;SDS011;65671;49.976;20.038;2023-03-21T01:28:19;39.92;;;22.60;;
76745;SDS011;65671;49.976;20.038;2023-03-21T01:30:46;38.95;;;21.65;;
76745;SDS011;65671;49.976;20.038;2023-03-21T01:33:13;42.85;;;24.40;;
76745;SDS011;65671;49.976;20.038;2023-03-21T01:35:40;42.47;;;22.80;;
76745;SDS011;65671;49.976;20.038;2023-03-21T01:38:06;39.45;;;21.88;;
76745;SDS011;65671;49.976;20.038;2023-03-21T01:40:31;37.60;;;20.60;;
76745;SDS011;65671;49.976;20.038;2023-03-21T01:42:57;38.00;;;24.15;;
76745;SDS011;65671;49.976;20.038;2023-03-21T01:48:26;42.85;;;24.15;;
76745;SDS011;65671;49.976;20.038;2023-03-21T01:50:53;44.03;;;23.67;;
76745;SDS011;65671;49.976;20.038;2023-03-21T01:53:20;44.55;;;24.65;;
76745;SDS011;65671;49.976;20.038;2023-03-21T01:55:52;48.65;;;25.80;;
76745;SDS011;65671;49.976;20.038;2023-03-21T01:58:18;50.22;;;26.85;;
76745;SDS011;65671;49.976;20.038;2023-03-21T02:00:45;47.72;;;24.48;;
76745;SDS011;65671;49.976;20.038;2023-03-21T02:03:14;51.85;;;25.30;;
76745;SDS011;65671;49.976;20.038;2023-03-21T02:08:18;42.28;;;23.02;;
76745;SDS011;65671;49.976;20.038;2023-03-21T02:10:45;42.55;;;24.20;;
76745;SDS011;65671;49.976;20.038;2023-03-21T02:13:13;43.97;;;24.50;;
76745;SDS011;65671;49.976;20.038;2023-03-21T02:15:41;45.53;;;24.20;;
76745;SDS011;65671;49.976;20.038;2023-03-21T02:18:20;42.65;;;22.95;;
76745;SDS011;65671;49.976;20.038;2023-03-21T02:37:21;39.40;;;22.25;;
76745;SDS011;65671;49.976;20.038;2023-03-21T02:40:04;36.95;;;21.52;;
76745;SDS011;65671;49.976;20.038;2023-03-21T02:45:27;33.83;;;20.23;;
76745;SDS011;65671;49.976;20.038;2023-03-21T02:48:04;36.50;;;21.30;;
76745;SDS011;65671;49.976;20.038;2023-03-21T02:53:08;34.40;;;20.55;;
76745;SDS011;65671;49.976;20.038;2023-03-21T02:55:38;38.50;;;20.75;;
76745;SDS011;65671;49.976;20.038;2023-03-21T02:58:08;38.53;;;21.33;;
76745;SDS011;65671;49.976;20.038;2023-03-21T03:00:36;41.55;;;22.85;;
76745;SDS011;65671;49.976;20.038;2023-03-21T03:03:03;39.13;;;21.17;;
76745;SDS011;65671;49.976;20.038;2023-03-21T03:05:29;39.75;;;22.27;;
76745;SDS011;65671;49.976;20.038;2023-03-21T03:08:03;45.50;;;22.33;;
76745;SDS011;65671;49.976;20.038;2023-03-21T03:10:39;40.47;;;20.73;;
76745;SDS011;65671;49.976;20.038;2023-03-21T03:18:40;43.10;;;21.70;;
76745;SDS011;65671;49.976;20.038;2023-03-21T03:26:58;38.08;;;20.45;;
76745;SDS011;65671;49.976;20.038;2023-03-21T03:29:30;38.15;;;21.33;;
76745;SDS011;65671;49.976;20.038;2023-03-21T03:34:29;40.33;;;21.13;;
76745;SDS011;65671;49.976;20.038;2023-03-21T03:37:08;44.40;;;23.40;;
76745;SDS011;65671;49.976;20.038;2023-03-21T03:40:22;43.33;;;23.00;;
76745;SDS011;65671;49.976;20.038;2023-03-21T03:42:50;46.00;;;23.15;;
76745;SDS011;65671;49.976;20.038;2023-03-21T03:45:18;52.08;;;25.77;;
76745;SDS011;65671;49.976;20.038;2023-03-21T03:50:33;60.17;;;27.27;;
76745;SDS011;65671;49.976;20.038;2023-03-21T03:53:02;65.75;;;30.23;;
76745;SDS011;65671;49.976;20.038;2023-03-21T03:55:41;69.60;;;30.20;;
76745;SDS011;65671;49.976;20.038;2023-03-21T03:58:08;75.97;;;31.73;;
76745;SDS011;65671;49.976;20.038;2023-03-21T04:00:34;82.13;;;34.90;;
76745;SDS011;65671;49.976;20.038;2023-03-21T04:03:00;78.05;;;35.85;;
76745;SDS011;65671;49.976;20.038;2023-03-21T04:05:25;79.13;;;34.00;;
76745;SDS011;65671;49.976;20.038;2023-03-21T04:07:51;81.18;;;35.35;;
76745;SDS011;65671;49.976;20.038;2023-03-21T04:10:18;84.70;;;35.42;;
76745;SDS011;65671;49.976;20.038;2023-03-21T04:12:46;88.28;;;35.50;;
76745;SDS011;65671;49.976;20.038;2023-03-21T04:15:11;85.13;;;36.78;;
76745;SDS011;65671;49.976;20.038;2023-03-21T04:17:37;80.78;;;33.63;;
76745;SDS011;65671;49.976;20.038;2023-03-21T04:20:04;82.63;;;34.20;;
76745;SDS011;65671;49.976;20.038;2023-03-21T04:22:31;93.30;;;37.50;;
76745;SDS011;65671;49.976;20.038;2023-03-21T04:24:58;81.30;;;32.72;;
76745;SDS011;65671;49.976;20.038;2023-03-21T04:27:25;80.53;;;35.50;;
76745;SDS011;65671;49.976;20.038;2023-03-21T04:29:51;76.97;;;30.45;;
76745;SDS011;65671;49.976;20.038;2023-03-21T04:32:43;78.75;;;32.80;;
76745;SDS011;65671;49.976;20.038;2023-03-21T04:35:09;75.97;;;32.38;;
76745;SDS011;65671;49.976;20.038;2023-03-21T04:37:35;64.55;;;30.30;;
76745;SDS011;65671;49.976;20.038;2023-03-21T04:40:03;66.00;;;28.73;;
76745;SDS011;65671;49.976;20.038;2023-03-21T04:42:31;66.38;;;29.75;;
76745;SDS011;65671;49.976;20.038;2023-03-21T04:44:58;68.82;;;29.88;;
76745;SDS011;65671;49.976;20.038;2023-03-21T04:47:24;68.35;;;29.33;;
76745;SDS011;65671;49.976;20.038;2023-03-21T04:49:50;68.20;;;30.67;;
76745;SDS011;65671;49.976;20.038;2023-03-21T04:52:20;68.32;;;29.75;;
76745;SDS011;65671;49.976;20.038;2023-03-21T04:54:45;67.60;;;31.38;;
76745;SDS011;65671;49.976;20.038;2023-03-21T04:57:11;64.57;;;29.50;;
76745;SDS011;65671;49.976;20.038;2023-03-21T04:59:37;66.63;;;29.60;;
76745;SDS011;65671;49.976;20.038;2023-03-21T05:02:03;67.88;;;29.83;;
76745;SDS011;65671;49.976;20.038;2023-03-21T05:04:28;63.08;;;28.35;;
76745;SDS011;65671;49.976;20.038;2023-03-21T05:06:55;68.78;;;28.77;;
76745;SDS011;65671;49.976;20.038;2023-03-21T05:09:21;72.80;;;29.52;;
76745;SDS011;65671;49.976;20.038;2023-03-21T05:11:46;67.82;;;26.60;;
76745;SDS011;65671;49.976;20.038;2023-03-21T05:14:14;71.47;;;29.63;;
76745;SDS011;65671;49.976;20.038;2023-03-21T05:16:42;71.07;;;28.20;;
76745;SDS011;65671;49.976;20.038;2023-03-21T05:19:13;65.57;;;27.48;;
76745;SDS011;65671;49.976;20.038;2023-03-21T05:21:39;55.38;;;25.08;;
76745;SDS011;65671;49.976;20.038;2023-03-21T05:24:10;64.13;;;27.25;;
76745;SDS011;65671;49.976;20.038;2023-03-21T05:26:38;58.47;;;26.48;;
76745;SDS011;65671;49.976;20.038;2023-03-21T05:29:05;53.60;;;22.98;;
76745;SDS011;65671;49.976;20.038;2023-03-21T05:31:32;41.97;;;21.40;;
76745;SDS011;65671;49.976;20.038;2023-03-21T05:33:57;46.28;;;23.13;;
76745;SDS011;65671;49.976;20.038;2023-03-21T05:36:23;41.60;;;20.23;;
76745;SDS011;65671;49.976;20.038;2023-03-21T05:38:49;41.60;;;20.35;;
76745;SDS011;65671;49.976;20.038;2023-03-21T05:41:15;43.45;;;19.00;;
76745;SDS011;65671;49.976;20.038;2023-03-21T05:43:42;40.10;;;19.00;;
76745;SDS011;65671;49.976;20.038;2023-03-21T05:46:08;34.15;;;17.88;;
76745;SDS011;65671;49.976;20.038;2023-03-21T05:48:34;34.25;;;17.48;;
76745;SDS011;65671;49.976;20.038;2023-03-21T05:51:00;36.05;;;18.50;;
76745;SDS011;65671;49.976;20.038;2023-03-21T05:53:27;30.70;;;17.70;;
76745;SDS011;65671;49.976;20.038;2023-03-21T05:55:53;32.25;;;17.08;;
76745;SDS011;65671;49.976;20.038;2023-03-21T05:58:18;30.27;;;16.83;;
76745;SDS011;65671;49.976;20.038;2023-03-21T06:00:44;29.40;;;16.17;;
76745;SDS011;65671;49.976;20.038;2023-03-21T06:03:09;29.05;;;15.20;;
76745;SDS011;65671;49.976;20.038;2023-03-21T06:05:35;27.55;;;14.48;;
76745;SDS011;65671;49.976;20.038;2023-03-21T06:08:01;20.67;;;11.70;;
76745;SDS011;65671;49.976;20.038;2023-03-21T06:10:26;22.95;;;12.30;;
76745;SDS011;65671;49.976;20.038;2023-03-21T06:12:52;20.08;;;10.98;;
76745;SDS011;65671;49.976;20.038;2023-03-21T06:15:18;18.05;;;10.93;;
76745;SDS011;65671;49.976;20.038;2023-03-21T06:17:44;14.32;;;8.65;;
76745;SDS011;65671;49.976;20.038;2023-03-21T06:20:10;12.73;;;8.20;;
76745;SDS011;65671;49.976;20.038;2023-03-21T06:22:36;14.20;;;8.40;;
76745;SDS011;65671;49.976;20.038;2023-03-21T06:25:02;13.75;;;8.02;;
76745;SDS011;65671;49.976;20.038;2023-03-21T06:27:29;15.00;;;7.75;;
76745;SDS011;65671;49.976;20.038;2023-03-21T06:29:54;13.20;;;7.32;;
76745;SDS011;65671;49.976;20.038;2023-03-21T06:32:22;13.80;;;8.25;;
76745;SDS011;65671;49.976;20.038;2023-03-21T06:34:48;10.52;;;6.32;;
76745;SDS011;65671;49.976;20.038;2023-03-21T06:37:14;11.10;;;6.68;;
76745;SDS011;65671;49.976;20.038;2023-03-21T06:39:39;13.15;;;6.50;;
76745;SDS011;65671;49.976;20.038;2023-03-21T06:42:05;11.75;;;6.57;;
76745;SDS011;65671;49.976;20.038;2023-03-21T06:44:31;8.27;;;4.80;;
76745;SDS011;65671;49.976;20.038;2023-03-21T06:46:56;10.50;;;5.93;;
76745;SDS011;65671;49.976;20.038;2023-03-21T06:49:22;9.30;;;5.38;;
76745;SDS011;65671;49.976;20.038;2023-03-21T06:51:48;12.10;;;6.25;;
76745;SDS011;65671;49.976;20.038;2023-03-21T06:54:13;7.82;;;4.93;;
76745;SDS011;65671;49.976;20.038;2023-03-21T06:56:41;7.28;;;5.05;;
76745;SDS011;65671;49.976;20.038;2023-03-21T06:59:08;8.48;;;5.35;;
76745;SDS011;65671;49.976;20.038;2023-03-21T07:01:34;9.02;;;5.50;;
76745;SDS011;65671;49.976;20.038;2023-03-21T07:03:59;8.75;;;5.20;;
76745;SDS011;65671;49.976;20.038;2023-03-21T07:06:25;9.63;;;5.50;;
76745;SDS011;65671;49.976;20.038;2023-03-21T07:08:51;9.50;;;6.05;;
76745;SDS011;65671;49.976;20.038;2023-03-21T07:11:19;11.88;;;6.57;;
76745;SDS011;65671;49.976;20.038;2023-03-21T07:13:45;10.05;;;5.95;;
76745;SDS011;65671;49.976;20.038;2023-03-21T07:16:13;8.32;;;4.65;;
76745;SDS011;65671;49.976;20.038;2023-03-21T07:18:42;6.80;;;4.47;;
76745;SDS011;65671;49.976;20.038;2023-03-21T07:21:08;8.68;;;4.95;;
76745;SDS011;65671;49.976;20.038;2023-03-21T07:23:34;6.80;;;4.57;;
76745;SDS011;65671;49.976;20.038;2023-03-21T07:26:00;7.03;;;4.47;;
76745;SDS011;65671;49.976;20.038;2023-03-21T07:28:26;8.13;;;5.20;;
76745;SDS011;65671;49.976;20.038;2023-03-21T07:30:53;8.82;;;5.85;;
76745;SDS011;65671;49.976;20.038;2023-03-21T07:33:24;8.07;;;5.50;;
76745;SDS011;65671;49.976;20.038;2023-03-21T07:35:51;8.63;;;5.35;;
76745;SDS011;65671;49.976;20.038;2023-03-21T07:38:18;7.82;;;5.05;;
76745;SDS011;65671;49.976;20.038;2023-03-21T07:40:44;7.30;;;4.50;;
76745;SDS011;65671;49.976;20.038;2023-03-21T07:43:12;7.32;;;4.80;;
76745;SDS011;65671;49.976;20.038;2023-03-21T07:45:38;5.95;;;4.32;;
76745;SDS011;65671;49.976;20.038;2023-03-21T07:48:04;8.38;;;5.07;;
76745;SDS011;65671;49.976;20.038;2023-03-21T07:50:30;6.93;;;4.25;;
76745;SDS011;65671;49.976;20.038;2023-03-21T07:52:56;7.80;;;4.85;;
76745;SDS011;65671;49.976;20.038;2023-03-21T07:55:22;8.30;;;5.68;;
76745;SDS011;65671;49.976;20.038;2023-03-21T07:57:48;7.82;;;4.75;;
76745;SDS011;65671;49.976;20.038;2023-03-21T08:00:16;7.47;;;5.32;;
76745;SDS011;65671;49.976;20.038;2023-03-21T08:02:49;8.52;;;4.60;;
76745;SDS011;65671;49.976;20.038;2023-03-21T08:05:22;8.55;;;6.07;;
76745;SDS011;65671;49.976;20.038;2023-03-21T08:07:50;9.57;;;6.28;;
76745;SDS011;65671;49.976;20.038;2023-03-21T08:10:17;11.52;;;6.38;;
76745;SDS011;65671;49.976;20.038;2023-03-21T08:12:44;11.75;;;7.68;;
76745;SDS011;65671;49.976;20.038;2023-03-21T08:15:10;10.82;;;6.63;;
76745;SDS011;65671;49.976;20.038;2023-03-21T08:17:38;9.10;;;6.28;;
76745;SDS011;65671;49.976;20.038;2023-03-21T08:20:05;8.77;;;5.90;;
76745;SDS011;65671;49.976;20.038;2023-03-21T08:22:33;8.70;;;4.93;;
76745;SDS011;65671;49.976;20.038;2023-03-21T08:25:01;7.82;;;4.80;;
76745;SDS011;65671;49.976;20.038;2023-03-21T08:27:29;7.35;;;4.82;;
76745;SDS011;65671;49.976;20.038;2023-03-21T08:29:56;5.70;;;3.78;;
76745;SDS011;65671;49.976;20.038;2023-03-21T08:32:23;7.88;;;4.40;;
76745;SDS011;65671;49.976;20.038;2023-03-21T08:35:01;7.15;;;4.47;;
76745;SDS011;65671;49.976;20.038;2023-03-21T08:37:29;7.70;;;5.00;;
76745;SDS011;65671;49.976;20.038;2023-03-21T08:39:55;6.25;;;3.95;;
76745;SDS011;65671;49.976;20.038;2023-03-21T08:42:21;5.90;;;3.97;;
76745;SDS011;65671;49.976;20.038;2023-03-21T08:44:48;7.40;;;4.30;;
76745;SDS011;65671;49.976;20.038;2023-03-21T08:47:15;7.75;;;4.47;;
76745;SDS011;65671;49.976;20.038;2023-03-21T08:49:42;11.77;;;5.32;;
76745;SDS011;65671;49.976;20.038;2023-03-21T08:52:10;9.65;;;5.20;;
76745;SDS011;65671;49.976;20.038;2023-03-21T08:54:36;11.07;;;6.32;;
76745;SDS011;65671;49.976;20.038;2023-03-21T08:57:02;9.48;;;6.93;;
76745;SDS011;65671;49.976;20.038;2023-03-21T08:59:29;12.20;;;8.05;;
76745;SDS011;65671;49.976;20.038;2023-03-21T09:01:57;15.63;;;8.75;;
76745;SDS011;65671;49.976;20.038;2023-03-21T09:04:23;11.70;;;7.55;;
76745;SDS011;65671;49.976;20.038;2023-03-21T09:06:50;15.07;;;8.18;;
76745;SDS011;65671;49.976;20.038;2023-03-21T09:09:16;13.68;;;8.55;;
76745;SDS011;65671;49.976;20.038;2023-03-21T09:11:42;13.88;;;9.00;;
76745;SDS011;65671;49.976;20.038;2023-03-21T09:14:08;17.67;;;9.73;;
76745;SDS011;65671;49.976;20.038;2023-03-21T09:16:34;17.10;;;10.52;;
76745;SDS011;65671;49.976;20.038;2023-03-21T09:18:59;17.35;;;10.10;;
76745;SDS011;65671;49.976;20.038;2023-03-21T09:21:29;20.58;;;11.05;;
76745;SDS011;65671;49.976;20.038;2023-03-21T09:23:55;18.08;;;11.20;;
76745;SDS011;65671;49.976;20.038;2023-03-21T09:26:23;17.23;;;9.25;;
76745;SDS011;65671;49.976;20.038;2023-03-21T09:28:52;18.55;;;10.68;;
76745;SDS011;65671;49.976;20.038;2023-03-21T09:31:19;14.25;;;9.32;;
76745;SDS011;65671;49.976;20.038;2023-03-21T09:33:50;16.77;;;9.43;;
76745;SDS011;65671;49.976;20.038;2023-03-21T09:36:17;14.63;;;9.57;;
76745;SDS011;65671;49.976;20.038;2023-03-21T09:38:45;16.42;;;9.55;;
76745;SDS011;65671;49.976;20.038;2023-03-21T09:41:19;14.20;;;8.93;;
76745;SDS011;65671;49.976;20.038;2023-03-21T09:43:54;14.57;;;9.55;;
76745;SDS011;65671;49.976;20.038;2023-03-21T09:46:49;14.38;;;8.88;;
76745;SDS011;65671;49.976;20.038;2023-03-21T09:49:26;16.42;;;9.10;;
76745;SDS011;65671;49.976;20.038;2023-03-21T09:52:00;18.77;;;10.63;;
76745;SDS011;65671;49.976;20.038;2023-03-21T09:54:36;15.23;;;9.27;;
76745;SDS011;65671;49.976;20.038;2023-03-21T09:59:51;17.23;;;10.48;;
76745;SDS011;65671;49.976;20.038;2023-03-21T10:02:20;16.02;;;9.48;;
76745;SDS011;65671;49.976;20.038;2023-03-21T10:04:58;18.02;;;11.10;;
76745;SDS011;65671;49.976;20.038;2023-03-21T10:07:25;18.77;;;12.48;;
76745;SDS011;65671;49.976;20.038;2023-03-21T10:09:52;18.80;;;11.52;;
76745;SDS011;65671;49.976;20.038;2023-03-21T10:12:20;17.95;;;11.07;;
76745;SDS011;65671;49.976;20.038;2023-03-21T10:14:48;21.38;;;12.52;;
76745;SDS011;65671;49.976;20.038;2023-03-21T10:19:45;21.50;;;13.38;;
76745;SDS011;65671;49.976;20.038;2023-03-21T10:22:19;23.60;;;14.90;;
76745;SDS011;65671;49.976;20.038;2023-03-21T10:24:45;24.77;;;15.48;;
76745;SDS011;65671;49.976;20.038;2023-03-21T10:27:12;25.92;;;15.05;;
76745;SDS011;65671;49.976;20.038;2023-03-21T10:29:42;24.85;;;14.55;;
76745;SDS011;65671;49.976;20.038;2023-03-21T10:32:10;25.90;;;15.48;;
76745;SDS011;65671;49.976;20.038;2023-03-21T10:34:50;23.70;;;14.15;;
76745;SDS011;65671;49.976;20.038;2023-03-21T10:37:21;27.10;;;16.30;;
76745;SDS011;65671;49.976;20.038;2023-03-21T10:39:49;23.38;;;14.25;;
76745;SDS011;65671;49.976;20.038;2023-03-21T10:42:25;25.92;;;14.20;;
76745;SDS011;65671;49.976;20.038;2023-03-21T10:44:55;24.35;;;14.05;;
76745;SDS011;65671;49.976;20.038;2023-03-21T10:47:32;26.08;;;14.40;;
76745;SDS011;65671;49.976;20.038;2023-03-21T10:50:10;26.45;;;13.60;;
76745;SDS011;65671;49.976;20.038;2023-03-21T10:52:41;24.98;;;12.90;;
76745;SDS011;65671;49.976;20.038;2023-03-21T10:57:45;22.95;;;12.88;;
76745;SDS011;65671;49.976;20.038;2023-03-21T11:00:23;22.25;;;13.68;;
76745;SDS011;65671;49.976;20.038;2023-03-21T11:02:53;23.52;;;13.85;;
76745;SDS011;65671;49.976;20.038;2023-03-21T11:05:21;23.77;;;14.27;;
76745;SDS011;65671;49.976;20.038;2023-03-21T11:08:10;27.38;;;14.73;;
76745;SDS011;65671;49.976;20.038;2023-03-21T11:13:43;24.17;;;13.57;;
76745;SDS011;65671;49.976;20.038;2023-03-21T11:16:24;21.08;;;13.35;;
76745;SDS011;65671;49.976;20.038;2023-03-21T11:19:00;24.13;;;13.32;;
76745;SDS011;65671;49.976;20.038;2023-03-21T11:21:37;26.50;;;14.40;;
76745;SDS011;65671;49.976;20.038;2023-03-21T11:24:03;23.63;;;13.70;;
76745;SDS011;65671;49.976;20.038;2023-03-21T11:26:34;24.33;;;13.93;;
76745;SDS011;65671;49.976;20.038;2023-03-21T11:29:09;25.13;;;14.10;;
76745;SDS011;65671;49.976;20.038;2023-03-21T11:32:10;24.25;;;14.90;;
76745;SDS011;65671;49.976;20.038;2023-03-21T11:34:47;22.45;;;12.95;;
76745;SDS011;65671;49.976;20.038;2023-03-21T11:37:38;20.02;;;12.48;;
76745;SDS011;65671;49.976;20.038;2023-03-21T11:42:51;24.17;;;14.18;;
76745;SDS011;65671;49.976;20.038;2023-03-21T11:47:48;20.70;;;13.43;;
76745;SDS011;65671;49.976;20.038;2023-03-21T11:50:20;23.40;;;14.05;;
76745;SDS011;65671;49.976;20.038;2023-03-21T11:53:04;26.88;;;15.63;;
76745;SDS011;65671;49.976;20.038;2023-03-21T11:55:35;27.90;;;15.45;;
76745;SDS011;65671;49.976;20.038;2023-03-21T12:00:50;26.50;;;15.38;;
76745;SDS011;65671;49.976;20.038;2023-03-21T12:19:55;30.15;;;15.80;;
76745;SDS011;65671;49.976;20.038;2023-03-21T12:25:10;31.90;;;16.65;;
76745;SDS011;65671;49.976;20.038;2023-03-21T12:32:51;29.27;;;17.73;;
76745;SDS011;65671;49.976;20.038;2023-03-21T12:36:02;30.05;;;16.65;;
76745;SDS011;65671;49.976;20.038;2023-03-21T12:44:59;28.77;;;17.08;;
76745;SDS011;65671;49.976;20.038;2023-03-21T12:47:38;29.60;;;17.17;;
76745;SDS011;65671;49.976;20.038;2023-03-21T12:50:20;32.40;;;18.92;;
76745;SDS011;65671;49.976;20.038;2023-03-21T12:52:49;32.00;;;18.58;;
76745;SDS011;65671;49.976;20.038;2023-03-21T12:55:23;33.95;;;19.40;;
76745;SDS011;65671;49.976;20.038;2023-03-21T12:58:07;32.13;;;19.05;;
76745;SDS011;65671;49.976;20.038;2023-03-21T13:00:45;32.53;;;19.98;;
76745;SDS011;65671;49.976;20.038;2023-03-21T13:06:02;34.10;;;18.95;;
76745;SDS011;65671;49.976;20.038;2023-03-21T13:11:15;37.42;;;20.73;;
76745;SDS011;65671;49.976;20.038;2023-03-21T13:19:22;35.92;;;20.38;;
76745;SDS011;65671;49.976;20.038;2023-03-21T13:24:44;41.50;;;21.70;;
76745;SDS011;65671;49.976;20.038;2023-03-21T13:27:29;34.33;;;19.23;;
76745;SDS011;65671;49.976;20.038;2023-03-21T13:30:02;40.20;;;22.23;;
76745;SDS011;65671;49.976;20.038;2023-03-21T13:32:38;36.70;;;21.35;;
76745;SDS011;65671;49.976;20.038;2023-03-21T13:35:40;35.03;;;20.75;;
76745;SDS011;65671;49.976;20.038;2023-03-21T13:40:50;36.37;;;18.23;;
76745;SDS011;65671;49.976;20.038;2023-03-21T13:43:34;37.78;;;20.63;;
76745;SDS011;65671;49.976;20.038;2023-03-21T13:46:11;39.25;;;21.77;;
76745;SDS011;65671;49.976;20.038;2023-03-21T13:57:20;40.75;;;21.08;;
76745;SDS011;65671;49.976;20.038;2023-03-21T13:59:48;37.60;;;21.00;;
76745;SDS011;65671;49.976;20.038;2023-03-21T14:02:34;34.78;;;18.83;;
76745;SDS011;65671;49.976;20.038;2023-03-21T14:05:03;36.97;;;20.88;;
76745;SDS011;65671;49.976;20.038;2023-03-21T14:07:43;37.50;;;20.20;;
76745;SDS011;65671;49.976;20.038;2023-03-21T14:13:03;35.72;;;20.10;;
76745;SDS011;65671;49.976;20.038;2023-03-21T14:18:13;37.10;;;19.85;;
76745;SDS011;65671;49.976;20.038;2023-03-21T14:20:41;32.70;;;19.15;;
76745;SDS011;65671;49.976;20.038;2023-03-21T14:23:13;33.95;;;20.33;;
76745;SDS011;65671;49.976;20.038;2023-03-21T14:25:41;39.30;;;20.23;;
76745;SDS011;65671;49.976;20.038;2023-03-21T14:28:18;40.00;;;22.02;;
76745;SDS011;65671;49.976;20.038;2023-03-21T14:31:00;42.90;;;22.40;;
76745;SDS011;65671;49.976;20.038;2023-03-21T14:33:41;38.83;;;21.38;;
76745;SDS011;65671;49.976;20.038;2023-03-21T14:36:13;38.97;;;21.45;;
76745;SDS011;65671;49.976;20.038;2023-03-21T14:38:51;44.15;;;23.13;;
76745;SDS011;65671;49.976;20.038;2023-03-21T14:41:26;43.03;;;23.23;;
76745;SDS011;65671;49.976;20.038;2023-03-21T14:44:00;42.92;;;24.27;;
76745;SDS011;65671;49.976;20.038;2023-03-21T14:46:42;48.42;;;25.10;;
76745;SDS011;65671;49.976;20.038;2023-03-21T14:49:28;47.92;;;25.52;;
76745;SDS011;65671;49.976;20.038;2023-03-21T14:51:58;46.60;;;23.90;;
76745;SDS011;65671;49.976;20.038;2023-03-21T14:54:28;42.33;;;20.52;;
76745;SDS011;65671;49.976;20.038;2023-03-21T14:56:59;39.08;;;20.25;;
76745;SDS011;65671;49.976;20.038;2023-03-21T14:59:34;38.58;;;19.00;;
76745;SDS011;65671;49.976;20.038;2023-03-21T15:02:27;40.53;;;21.35;;
76745;SDS011;65671;49.976;20.038;2023-03-21T15:05:30;37.25;;;20.05;;
76745;SDS011;65671;49.976;20.038;2023-03-21T15:08:06;40.17;;;20.35;;
76745;SDS011;65671;49.976;20.038;2023-03-21T15:13:25;41.67;;;20.10;;
76745;SDS011;65671;49.976;20.038;2023-03-21T15:18:33;40.47;;;20.35;;
76745;SDS011;65671;49.976;20.038;2023-03-21T15:21:26;41.20;;;21.65;;
76745;SDS011;65671;49.976;20.038;2023-03-21T15:24:05;39.60;;;20.63;;
76745;SDS011;65671;49.976;20.038;2023-03-21T15:26:39;40.28;;;19.48;;
76745;SDS011;65671;49.976;20.038;2023-03-21T15:29:08;41.40;;;19.48;;
76745;SDS011;65671;49.976;20.038;2023-03-21T15:31:36;36.17;;;20.35;;
76745;SDS011;65671;49.976;20.038;2023-03-21T15:34:04;40.28;;;19.63;;
76745;SDS011;65671;49.976;20.038;2023-03-21T15:36:32;37.55;;;19.92;;
76745;SDS011;65671;49.976;20.038;2023-03-21T15:39:07;39.95;;;19.40;;
76745;SDS011;65671;49.976;20.038;2023-03-21T15:41:38;38.38;;;19.60;;
76745;SDS011;65671;49.976;20.038;2023-03-21T15:44:12;39.65;;;20.50;;
76745;SDS011;65671;49.976;20.038;2023-03-21T15:46:48;40.63;;;20.38;;
76745;SDS011;65671;49.976;20.038;2023-03-21T15:51:45;36.65;;;19.70;;
76745;SDS011;65671;49.976;20.038;2023-03-21T15:54:28;43.70;;;21.10;;
76745;SDS011;65671;49.976;20.038;2023-03-21T15:57:02;43.05;;;22.05;;
76745;SDS011;65671;49.976;20.038;2023-03-21T16:02:13;45.63;;;23.45;;
76745;SDS011;65671;49.976;20.038;2023-03-21T16:07:46;50.22;;;25.35;;
76745;SDS011;65671;49.976;20.038;2023-03-21T16:10:26;50.05;;;26.38;;
76745;SDS011;65671;49.976;20.038;2023-03-21T16:13:00;54.90;;;28.42;;
76745;SDS011;65671;49.976;20.038;2023-03-21T16:15:26;49.55;;;25.17;;
76745;SDS011;65671;49.976;20.038;2023-03-21T16:18:01;47.85;;;26.17;;
76745;SDS011;65671;49.976;20.038;2023-03-21T16:20:30;63.40;;;27.48;;
76745;SDS011;65671;49.976;20.038;2023-03-21T16:22:58;48.10;;;26.48;;
76745;SDS011;65671;49.976;20.038;2023-03-21T16:25:25;51.50;;;24.70;;
76745;SDS011;65671;49.976;20.038;2023-03-21T16:27:52;48.95;;;23.83;;
76745;SDS011;65671;49.976;20.038;2023-03-21T16:30:18;49.25;;;26.75;;
76745;SDS011;65671;49.976;20.038;2023-03-21T16:32:45;44.72;;;23.40;;
76745;SDS011;65671;49.976;20.038;2023-03-21T16:35:12;50.30;;;24.92;;
76745;SDS011;65671;49.976;20.038;2023-03-21T16:37:38;52.22;;;27.10;;
76745;SDS011;65671;49.976;20.038;2023-03-21T16:42:55;73.90;;;37.38;;
76745;SDS011;65671;49.976;20.038;2023-03-21T16:45:21;63.30;;;32.28;;
76745;SDS011;65671;49.976;20.038;2023-03-21T16:47:47;59.97;;;33.45;;
76745;SDS011;65671;49.976;20.038;2023-03-21T16:50:25;64.65;;;33.13;;